Southold, NY (11971)

2:28 PM EST on February 10, 2016 (GMT -0500)
residential neghiborhood - Southold, NY | | Change Station
CLOSE
Current Station
Personal Weather Station
Location: Southold, NY
Elevation: 7 ft
Nearby Weather Stations

Elev 7 ft 41.06 °N, 72.43 °W | Updated 2 minutes ago

Overcast
Overcast
36.9 °F
Feels Like 37 °F
N
2.7
Wind Variable Wind from ESE

Today
High -- | Low -- °F
--% Chance of Precip.
Yesterday
High -- | Low -- °F
Precip. -- in
Pressure 29.57 in
Visibility 10.0 miles
Clouds Scattered Clouds 1200 ft
Mostly Cloudy 1700 ft
Overcast 8500 ft
Windchill 37 °F
Dew Point 33 °F
Humidity 86%
Rainfall 0.09 in
Snow Depth Not available.
6:51 AM 5:17 PM
Waxing Crescent, 7% visible
METAR KHTO 101915Z AUTO 30007KT 10SM SCT012 BKN017 OVC085 02/M01 A2957 RMK AO2 T00161013
Pressure 29.57 in
Visibility 10.0 miles
Clouds Scattered Clouds 1200 ft
Mostly Cloudy 1700 ft
Overcast 8500 ft
Windchill 37 °F
Dew Point 33 °F
Humidity 86%
Rainfall 0.09 in
Snow Depth Not available.
6:51 AM 5:17 PM
Waxing Crescent, 7% visible
METAR KHTO 101915Z AUTO 30007KT 10SM SCT012 BKN017 OVC085 02/M01 A2957 RMK AO2 T00161013

10-Day Weather Forecast

Almanac

Astronomy

Feb. 10, 2016 Rise Set
Actual Time
Civil Twilight
Nautical Twilight
Astronomical Twilight
Moon
Length of Visible Light
Length of Day
Tomorrow will be .
, % of the Moon is Illuminated

Today's Extremes

State Highs State Lows

Community

WunderPhotos

Upload Photos

1,891,922 photos uploaded!

WunderBlog® & News

Nearby

Air Quality

  Air Quality AQ Index Pollutant
Not available.

Snow Depth

Station Depth Elevation

Earthquake Activity

City Distance Mag. Time & Date
Minimum magnitude displayed is 2.5.

Coastal Water Temperatures

Place Temperature

Stations

Nearby Weather Stations

Station Location Temp. Windchill Dew Point Humidity Wind Precip. Elev Updated Type
                   

Watches & Warnings

There are currently no watches in effect.